sensor_id;sensor_type;location;lat;lon;timestamp;P1;durP1;ratioP1;P2;durP2;ratioP2
59273;SDS011;45044;41.572;24.730;2023-09-19T00:00:38;10.07;;;6.03;;
59273;SDS011;45044;41.572;24.730;2023-09-19T00:03:07;9.27;;;5.53;;
59273;SDS011;45044;41.572;24.730;2023-09-19T00:05:36;8.43;;;5.07;;
59273;SDS011;45044;41.572;24.730;2023-09-19T00:08:12;8.43;;;4.40;;
59273;SDS011;45044;41.572;24.730;2023-09-19T00:10:42;8.77;;;4.93;;
59273;SDS011;45044;41.572;24.730;2023-09-19T00:13:10;7.35;;;4.63;;
59273;SDS011;45044;41.572;24.730;2023-09-19T00:15:43;9.40;;;5.63;;
59273;SDS011;45044;41.572;24.730;2023-09-19T00:18:16;10.23;;;5.95;;
59273;SDS011;45044;41.572;24.730;2023-09-19T00:20:46;8.88;;;5.35;;
59273;SDS011;45044;41.572;24.730;2023-09-19T00:23:18;9.25;;;5.60;;
59273;SDS011;45044;41.572;24.730;2023-09-19T00:25:46;7.53;;;4.88;;
59273;SDS011;45044;41.572;24.730;2023-09-19T00:28:13;10.10;;;5.05;;
59273;SDS011;45044;41.572;24.730;2023-09-19T00:30:43;9.15;;;4.80;;
59273;SDS011;45044;41.572;24.730;2023-09-19T00:33:10;9.60;;;5.18;;
59273;SDS011;45044;41.572;24.730;2023-09-19T00:35:49;7.32;;;4.60;;
59273;SDS011;45044;41.572;24.730;2023-09-19T00:38:17;8.07;;;4.43;;
59273;SDS011;45044;41.572;24.730;2023-09-19T00:40:46;7.80;;;4.68;;
59273;SDS011;45044;41.572;24.730;2023-09-19T00:43:14;7.00;;;4.68;;
59273;SDS011;45044;41.572;24.730;2023-09-19T00:45:45;9.13;;;4.72;;
59273;SDS011;45044;41.572;24.730;2023-09-19T00:48:17;7.45;;;4.50;;
59273;SDS011;45044;41.572;24.730;2023-09-19T00:50:47;6.35;;;4.43;;
59273;SDS011;45044;41.572;24.730;2023-09-19T00:53:18;7.85;;;4.85;;
59273;SDS011;45044;41.572;24.730;2023-09-19T00:55:47;8.57;;;5.15;;
59273;SDS011;45044;41.572;24.730;2023-09-19T00:58:16;8.27;;;5.18;;
59273;SDS011;45044;41.572;24.730;2023-09-19T01:00:45;8.48;;;4.80;;
59273;SDS011;45044;41.572;24.730;2023-09-19T01:03:14;7.63;;;4.30;;
59273;SDS011;45044;41.572;24.730;2023-09-19T01:05:41;8.30;;;4.53;;
59273;SDS011;45044;41.572;24.730;2023-09-19T01:08:09;8.50;;;5.35;;
59273;SDS011;45044;41.572;24.730;2023-09-19T01:10:39;10.13;;;4.57;;
59273;SDS011;45044;41.572;24.730;2023-09-19T01:16:29;8.30;;;5.05;;
59273;SDS011;45044;41.572;24.730;2023-09-19T01:22:08;7.65;;;4.85;;
59273;SDS011;45044;41.572;24.730;2023-09-19T01:30:35;9.82;;;5.38;;
59273;SDS011;45044;41.572;24.730;2023-09-19T01:33:06;8.40;;;5.38;;
59273;SDS011;45044;41.572;24.730;2023-09-19T01:35:34;8.73;;;4.90;;
59273;SDS011;45044;41.572;24.730;2023-09-19T01:38:05;8.10;;;4.78;;
59273;SDS011;45044;41.572;24.730;2023-09-19T01:40:41;8.00;;;5.45;;
59273;SDS011;45044;41.572;24.730;2023-09-19T01:43:12;9.90;;;5.50;;
59273;SDS011;45044;41.572;24.730;2023-09-19T01:45:54;9.73;;;4.97;;
59273;SDS011;45044;41.572;24.730;2023-09-19T01:48:26;8.10;;;5.05;;
59273;SDS011;45044;41.572;24.730;2023-09-19T01:51:34;9.43;;;5.15;;
59273;SDS011;45044;41.572;24.730;2023-09-19T01:54:10;9.18;;;4.90;;
59273;SDS011;45044;41.572;24.730;2023-09-19T01:56:49;9.23;;;5.00;;
59273;SDS011;45044;41.572;24.730;2023-09-19T01:59:25;9.48;;;4.50;;
59273;SDS011;45044;41.572;24.730;2023-09-19T02:02:00;7.40;;;4.70;;
59273;SDS011;45044;41.572;24.730;2023-09-19T02:04:28;8.50;;;4.93;;
59273;SDS011;45044;41.572;24.730;2023-09-19T02:06:55;9.80;;;5.03;;
59273;SDS011;45044;41.572;24.730;2023-09-19T02:09:22;8.27;;;5.03;;
59273;SDS011;45044;41.572;24.730;2023-09-19T02:11:49;10.15;;;5.30;;
59273;SDS011;45044;41.572;24.730;2023-09-19T02:14:16;8.23;;;4.57;;
59273;SDS011;45044;41.572;24.730;2023-09-19T02:16:42;8.02;;;4.43;;
59273;SDS011;45044;41.572;24.730;2023-09-19T02:19:09;8.95;;;5.25;;
59273;SDS011;45044;41.572;24.730;2023-09-19T02:21:36;8.13;;;5.20;;
59273;SDS011;45044;41.572;24.730;2023-09-19T02:24:03;8.13;;;4.88;;
59273;SDS011;45044;41.572;24.730;2023-09-19T02:26:30;9.30;;;5.10;;
59273;SDS011;45044;41.572;24.730;2023-09-19T02:28:57;8.60;;;4.97;;
59273;SDS011;45044;41.572;24.730;2023-09-19T02:31:24;7.57;;;5.07;;
59273;SDS011;45044;41.572;24.730;2023-09-19T02:33:51;8.23;;;4.97;;
59273;SDS011;45044;41.572;24.730;2023-09-19T02:36:17;8.30;;;5.00;;
59273;SDS011;45044;41.572;24.730;2023-09-19T02:38:44;9.93;;;4.78;;
59273;SDS011;45044;41.572;24.730;2023-09-19T02:41:11;9.15;;;5.40;;
59273;SDS011;45044;41.572;24.730;2023-09-19T02:43:38;8.63;;;4.97;;
59273;SDS011;45044;41.572;24.730;2023-09-19T02:46:06;8.65;;;4.70;;
59273;SDS011;45044;41.572;24.730;2023-09-19T02:48:33;7.53;;;4.70;;
59273;SDS011;45044;41.572;24.730;2023-09-19T02:51:02;7.93;;;4.68;;
59273;SDS011;45044;41.572;24.730;2023-09-19T02:53:31;8.52;;;4.90;;
59273;SDS011;45044;41.572;24.730;2023-09-19T02:55:58;8.18;;;5.30;;
59273;SDS011;45044;41.572;24.730;2023-09-19T02:58:25;8.38;;;4.78;;
59273;SDS011;45044;41.572;24.730;2023-09-19T03:00:54;10.18;;;5.10;;
59273;SDS011;45044;41.572;24.730;2023-09-19T03:03:21;8.70;;;4.43;;
59273;SDS011;45044;41.572;24.730;2023-09-19T03:05:49;8.02;;;5.15;;
59273;SDS011;45044;41.572;24.730;2023-09-19T03:08:20;8.45;;;5.03;;
59273;SDS011;45044;41.572;24.730;2023-09-19T03:10:48;9.02;;;5.40;;
59273;SDS011;45044;41.572;24.730;2023-09-19T03:13:16;8.18;;;5.18;;
59273;SDS011;45044;41.572;24.730;2023-09-19T03:15:43;8.93;;;5.90;;
59273;SDS011;45044;41.572;24.730;2023-09-19T03:18:12;8.43;;;5.35;;
59273;SDS011;45044;41.572;24.730;2023-09-19T03:20:40;7.57;;;5.00;;
59273;SDS011;45044;41.572;24.730;2023-09-19T03:23:06;9.05;;;4.57;;
59273;SDS011;45044;41.572;24.730;2023-09-19T03:25:34;8.73;;;4.68;;
59273;SDS011;45044;41.572;24.730;2023-09-19T03:28:04;8.93;;;5.10;;
59273;SDS011;45044;41.572;24.730;2023-09-19T03:30:32;8.95;;;5.00;;
59273;SDS011;45044;41.572;24.730;2023-09-19T03:33:00;8.95;;;4.85;;
59273;SDS011;45044;41.572;24.730;2023-09-19T03:35:27;10.07;;;5.03;;
59273;SDS011;45044;41.572;24.730;2023-09-19T03:37:54;9.38;;;4.78;;
59273;SDS011;45044;41.572;24.730;2023-09-19T03:40:21;9.55;;;5.18;;
59273;SDS011;45044;41.572;24.730;2023-09-19T03:42:49;9.88;;;5.45;;
59273;SDS011;45044;41.572;24.730;2023-09-19T03:45:16;9.07;;;4.97;;
59273;SDS011;45044;41.572;24.730;2023-09-19T03:47:44;8.48;;;4.78;;
59273;SDS011;45044;41.572;24.730;2023-09-19T03:50:14;9.00;;;4.97;;
59273;SDS011;45044;41.572;24.730;2023-09-19T03:52:44;9.18;;;5.25;;
59273;SDS011;45044;41.572;24.730;2023-09-19T03:55:11;7.75;;;4.72;;
59273;SDS011;45044;41.572;24.730;2023-09-19T03:57:39;8.38;;;5.55;;
59273;SDS011;45044;41.572;24.730;2023-09-19T04:00:06;12.82;;;5.93;;
59273;SDS011;45044;41.572;24.730;2023-09-19T04:02:38;8.02;;;4.72;;
59273;SDS011;45044;41.572;24.730;2023-09-19T04:05:06;11.30;;;5.63;;
59273;SDS011;45044;41.572;24.730;2023-09-19T04:07:33;9.57;;;5.28;;
59273;SDS011;45044;41.572;24.730;2023-09-19T04:10:01;8.00;;;5.20;;
59273;SDS011;45044;41.572;24.730;2023-09-19T04:12:30;10.25;;;5.63;;
59273;SDS011;45044;41.572;24.730;2023-09-19T04:14:58;9.07;;;6.03;;
59273;SDS011;45044;41.572;24.730;2023-09-19T04:17:24;9.20;;;4.72;;
59273;SDS011;45044;41.572;24.730;2023-09-19T04:19:51;8.60;;;4.75;;
59273;SDS011;45044;41.572;24.730;2023-09-19T04:22:19;8.88;;;5.47;;
59273;SDS011;45044;41.572;24.730;2023-09-19T04:24:46;8.20;;;4.95;;
59273;SDS011;45044;41.572;24.730;2023-09-19T04:27:13;11.00;;;5.57;;
59273;SDS011;45044;41.572;24.730;2023-09-19T04:29:41;9.07;;;5.35;;
59273;SDS011;45044;41.572;24.730;2023-09-19T04:32:08;10.02;;;5.90;;
59273;SDS011;45044;41.572;24.730;2023-09-19T04:34:36;10.73;;;5.32;;
59273;SDS011;45044;41.572;24.730;2023-09-19T04:37:05;7.93;;;5.35;;
59273;SDS011;45044;41.572;24.730;2023-09-19T04:39:31;9.23;;;5.70;;
59273;SDS011;45044;41.572;24.730;2023-09-19T04:41:58;16.95;;;6.55;;
59273;SDS011;45044;41.572;24.730;2023-09-19T04:44:25;10.45;;;6.10;;
59273;SDS011;45044;41.572;24.730;2023-09-19T04:46:52;10.75;;;5.72;;
59273;SDS011;45044;41.572;24.730;2023-09-19T04:49:19;12.07;;;6.40;;
59273;SDS011;45044;41.572;24.730;2023-09-19T04:51:46;10.88;;;6.10;;
59273;SDS011;45044;41.572;24.730;2023-09-19T04:54:13;11.07;;;6.47;;
59273;SDS011;45044;41.572;24.730;2023-09-19T04:56:41;10.95;;;6.65;;
59273;SDS011;45044;41.572;24.730;2023-09-19T04:59:08;12.35;;;6.97;;
59273;SDS011;45044;41.572;24.730;2023-09-19T05:01:37;11.68;;;7.00;;
59273;SDS011;45044;41.572;24.730;2023-09-19T05:04:04;12.43;;;6.70;;
59273;SDS011;45044;41.572;24.730;2023-09-19T05:06:31;11.20;;;6.88;;
59273;SDS011;45044;41.572;24.730;2023-09-19T05:09:01;10.60;;;7.00;;
59273;SDS011;45044;41.572;24.730;2023-09-19T05:11:31;11.40;;;7.15;;
59273;SDS011;45044;41.572;24.730;2023-09-19T05:13:58;12.25;;;7.95;;
59273;SDS011;45044;41.572;24.730;2023-09-19T05:16:30;10.48;;;6.88;;
59273;SDS011;45044;41.572;24.730;2023-09-19T05:19:00;10.52;;;6.57;;
59273;SDS011;45044;41.572;24.730;2023-09-19T05:21:28;13.77;;;6.53;;
59273;SDS011;45044;41.572;24.730;2023-09-19T05:23:56;12.02;;;7.07;;
59273;SDS011;45044;41.572;24.730;2023-09-19T05:26:23;12.82;;;6.68;;
59273;SDS011;45044;41.572;24.730;2023-09-19T05:28:50;12.35;;;7.05;;
59273;SDS011;45044;41.572;24.730;2023-09-19T05:31:16;9.93;;;6.75;;
59273;SDS011;45044;41.572;24.730;2023-09-19T05:33:43;8.38;;;6.15;;
59273;SDS011;45044;41.572;24.730;2023-09-19T05:36:10;9.95;;;5.43;;
59273;SDS011;45044;41.572;24.730;2023-09-19T05:38:38;8.80;;;5.75;;
59273;SDS011;45044;41.572;24.730;2023-09-19T05:41:08;9.77;;;5.20;;
59273;SDS011;45044;41.572;24.730;2023-09-19T05:43:40;8.50;;;5.28;;
59273;SDS011;45044;41.572;24.730;2023-09-19T05:46:08;11.60;;;5.85;;
59273;SDS011;45044;41.572;24.730;2023-09-19T05:48:35;9.80;;;5.80;;
59273;SDS011;45044;41.572;24.730;2023-09-19T05:51:02;10.10;;;5.65;;
59273;SDS011;45044;41.572;24.730;2023-09-19T05:53:29;9.40;;;5.82;;
59273;SDS011;45044;41.572;24.730;2023-09-19T05:55:56;8.68;;;5.20;;
59273;SDS011;45044;41.572;24.730;2023-09-19T05:58:23;7.40;;;5.00;;
59273;SDS011;45044;41.572;24.730;2023-09-19T06:00:50;10.20;;;5.50;;
59273;SDS011;45044;41.572;24.730;2023-09-19T06:03:16;6.78;;;4.90;;
59273;SDS011;45044;41.572;24.730;2023-09-19T06:05:45;7.82;;;4.80;;
59273;SDS011;45044;41.572;24.730;2023-09-19T06:08:12;7.40;;;4.57;;
59273;SDS011;45044;41.572;24.730;2023-09-19T06:10:39;9.30;;;5.20;;
59273;SDS011;45044;41.572;24.730;2023-09-19T06:13:06;8.95;;;4.70;;
59273;SDS011;45044;41.572;24.730;2023-09-19T06:15:36;9.90;;;5.18;;
59273;SDS011;45044;41.572;24.730;2023-09-19T06:18:03;7.45;;;4.80;;
59273;SDS011;45044;41.572;24.730;2023-09-19T06:20:31;6.95;;;4.35;;
59273;SDS011;45044;41.572;24.730;2023-09-19T06:22:59;7.40;;;4.57;;
59273;SDS011;45044;41.572;24.730;2023-09-19T06:25:28;8.07;;;5.05;;
59273;SDS011;45044;41.572;24.730;2023-09-19T06:27:55;6.72;;;4.63;;
59273;SDS011;45044;41.572;24.730;2023-09-19T06:30:23;7.95;;;5.13;;
59273;SDS011;45044;41.572;24.730;2023-09-19T06:33:01;9.02;;;4.65;;
59273;SDS011;45044;41.572;24.730;2023-09-19T06:35:31;8.10;;;4.47;;
59273;SDS011;45044;41.572;24.730;2023-09-19T06:38:02;7.20;;;4.20;;
59273;SDS011;45044;41.572;24.730;2023-09-19T06:40:30;6.47;;;4.30;;
59273;SDS011;45044;41.572;24.730;2023-09-19T06:42:57;7.40;;;4.82;;
59273;SDS011;45044;41.572;24.730;2023-09-19T06:45:24;6.60;;;4.65;;
59273;SDS011;45044;41.572;24.730;2023-09-19T06:47:53;8.73;;;5.32;;
59273;SDS011;45044;41.572;24.730;2023-09-19T06:50:25;7.60;;;4.80;;
59273;SDS011;45044;41.572;24.730;2023-09-19T06:52:52;8.45;;;4.55;;
59273;SDS011;45044;41.572;24.730;2023-09-19T06:55:22;8.10;;;4.80;;
59273;SDS011;45044;41.572;24.730;2023-09-19T06:57:51;6.97;;;4.22;;
59273;SDS011;45044;41.572;24.730;2023-09-19T07:00:21;7.05;;;4.50;;
59273;SDS011;45044;41.572;24.730;2023-09-19T07:02:58;9.20;;;4.45;;
59273;SDS011;45044;41.572;24.730;2023-09-19T07:05:28;7.75;;;4.32;;
59273;SDS011;45044;41.572;24.730;2023-09-19T07:07:55;7.72;;;4.30;;
59273;SDS011;45044;41.572;24.730;2023-09-19T07:10:22;6.13;;;3.30;;
59273;SDS011;45044;41.572;24.730;2023-09-19T07:13:00;5.82;;;3.47;;
59273;SDS011;45044;41.572;24.730;2023-09-19T07:15:29;6.85;;;3.25;;
59273;SDS011;45044;41.572;24.730;2023-09-19T07:18:00;5.93;;;3.08;;
59273;SDS011;45044;41.572;24.730;2023-09-19T07:20:27;6.30;;;3.33;;
59273;SDS011;45044;41.572;24.730;2023-09-19T07:22:58;5.53;;;3.08;;
59273;SDS011;45044;41.572;24.730;2023-09-19T07:25:29;5.20;;;3.17;;
59273;SDS011;45044;41.572;24.730;2023-09-19T07:27:57;5.53;;;3.13;;
59273;SDS011;45044;41.572;24.730;2023-09-19T07:30:28;5.25;;;3.35;;
59273;SDS011;45044;41.572;24.730;2023-09-19T07:32:55;5.75;;;3.03;;
59273;SDS011;45044;41.572;24.730;2023-09-19T07:35:22;4.47;;;3.05;;
59273;SDS011;45044;41.572;24.730;2023-09-19T07:37:49;5.10;;;2.97;;
59273;SDS011;45044;41.572;24.730;2023-09-19T07:40:18;5.45;;;3.33;;
59273;SDS011;45044;41.572;24.730;2023-09-19T07:42:47;5.35;;;3.40;;
59273;SDS011;45044;41.572;24.730;2023-09-19T07:45:14;4.38;;;2.63;;
59273;SDS011;45044;41.572;24.730;2023-09-19T07:47:44;5.22;;;2.95;;
59273;SDS011;45044;41.572;24.730;2023-09-19T07:50:16;5.10;;;2.60;;
59273;SDS011;45044;41.572;24.730;2023-09-19T07:52:46;4.35;;;2.83;;
59273;SDS011;45044;41.572;24.730;2023-09-19T07:55:13;5.20;;;2.85;;
59273;SDS011;45044;41.572;24.730;2023-09-19T07:57:44;4.43;;;2.53;;
59273;SDS011;45044;41.572;24.730;2023-09-19T08:00:11;5.68;;;2.92;;
59273;SDS011;45044;41.572;24.730;2023-09-19T08:02:38;4.97;;;2.60;;
59273;SDS011;45044;41.572;24.730;2023-09-19T08:05:07;4.15;;;2.53;;
59273;SDS011;45044;41.572;24.730;2023-09-19T08:07:39;5.32;;;2.53;;
59273;SDS011;45044;41.572;24.730;2023-09-19T08:10:07;4.55;;;2.65;;
59273;SDS011;45044;41.572;24.730;2023-09-19T08:12:34;4.00;;;2.63;;
59273;SDS011;45044;41.572;24.730;2023-09-19T08:15:05;5.90;;;2.30;;
59273;SDS011;45044;41.572;24.730;2023-09-19T08:17:34;4.28;;;2.55;;
59273;SDS011;45044;41.572;24.730;2023-09-19T08:20:02;6.30;;;3.03;;
59273;SDS011;45044;41.572;24.730;2023-09-19T08:22:31;3.42;;;2.70;;
59273;SDS011;45044;41.572;24.730;2023-09-19T08:24:58;4.78;;;2.78;;
59273;SDS011;45044;41.572;24.730;2023-09-19T08:27:25;10.48;;;3.22;;
59273;SDS011;45044;41.572;24.730;2023-09-19T08:29:55;4.15;;;2.75;;
59273;SDS011;45044;41.572;24.730;2023-09-19T08:32:21;30.98;;;6.63;;
59273;SDS011;45044;41.572;24.730;2023-09-19T08:34:50;5.07;;;2.40;;
59273;SDS011;45044;41.572;24.730;2023-09-19T08:37:17;4.13;;;2.53;;
59273;SDS011;45044;41.572;24.730;2023-09-19T08:39:45;5.00;;;2.85;;
59273;SDS011;45044;41.572;24.730;2023-09-19T08:42:12;4.85;;;2.60;;
59273;SDS011;45044;41.572;24.730;2023-09-19T08:44:39;4.93;;;2.92;;
59273;SDS011;45044;41.572;24.730;2023-09-19T08:47:10;4.03;;;2.70;;
59273;SDS011;45044;41.572;24.730;2023-09-19T08:52:16;5.85;;;2.80;;
59273;SDS011;45044;41.572;24.730;2023-09-19T08:54:47;5.30;;;2.70;;
59273;SDS011;45044;41.572;24.730;2023-09-19T08:57:18;3.83;;;2.42;;
59273;SDS011;45044;41.572;24.730;2023-09-19T08:59:48;4.93;;;2.60;;
59273;SDS011;45044;41.572;24.730;2023-09-19T09:02:16;4.03;;;2.70;;
59273;SDS011;45044;41.572;24.730;2023-09-19T09:04:46;6.25;;;2.47;;
59273;SDS011;45044;41.572;24.730;2023-09-19T09:07:16;4.00;;;2.65;;
59273;SDS011;45044;41.572;24.730;2023-09-19T09:09:45;4.32;;;2.42;;
59273;SDS011;45044;41.572;24.730;2023-09-19T09:12:13;4.30;;;2.70;;
59273;SDS011;45044;41.572;24.730;2023-09-19T09:14:44;5.40;;;2.50;;
59273;SDS011;45044;41.572;24.730;2023-09-19T09:17:17;3.75;;;2.20;;
59273;SDS011;45044;41.572;24.730;2023-09-19T09:19:47;4.57;;;2.50;;
59273;SDS011;45044;41.572;24.730;2023-09-19T09:22:14;5.32;;;2.65;;
59273;SDS011;45044;41.572;24.730;2023-09-19T09:27:20;3.70;;;2.58;;
59273;SDS011;45044;41.572;24.730;2023-09-19T09:29:51;4.43;;;2.10;;
59273;SDS011;45044;41.572;24.730;2023-09-19T09:32:25;4.03;;;2.55;;
59273;SDS011;45044;41.572;24.730;2023-09-19T09:35:01;5.60;;;2.75;;
59273;SDS011;45044;41.572;24.730;2023-09-19T09:37:31;4.10;;;2.17;;
59273;SDS011;45044;41.572;24.730;2023-09-19T09:39:59;3.97;;;2.72;;
59273;SDS011;45044;41.572;24.730;2023-09-19T09:42:41;5.22;;;2.70;;
59273;SDS011;45044;41.572;24.730;2023-09-19T09:45:14;3.70;;;2.40;;
59273;SDS011;45044;41.572;24.730;2023-09-19T09:48:04;4.88;;;2.75;;
59273;SDS011;45044;41.572;24.730;2023-09-19T09:50:47;4.38;;;2.60;;
59273;SDS011;45044;41.572;24.730;2023-09-19T09:53:24;4.15;;;2.78;;
59273;SDS011;45044;41.572;24.730;2023-09-19T09:56:05;4.63;;;3.10;;
59273;SDS011;45044;41.572;24.730;2023-09-19T09:58:34;4.80;;;2.80;;
59273;SDS011;45044;41.572;24.730;2023-09-19T10:01:03;4.35;;;2.35;;
59273;SDS011;45044;41.572;24.730;2023-09-19T10:03:41;4.88;;;2.60;;
59273;SDS011;45044;41.572;24.730;2023-09-19T10:06:16;5.45;;;2.88;;
59273;SDS011;45044;41.572;24.730;2023-09-19T10:09:06;4.65;;;2.67;;
59273;SDS011;45044;41.572;24.730;2023-09-19T10:11:45;4.97;;;2.83;;
59273;SDS011;45044;41.572;24.730;2023-09-19T10:14:25;4.53;;;2.65;;
59273;SDS011;45044;41.572;24.730;2023-09-19T10:19:31;4.47;;;3.05;;
59273;SDS011;45044;41.572;24.730;2023-09-19T10:22:04;4.57;;;2.63;;
59273;SDS011;45044;41.572;24.730;2023-09-19T10:24:35;4.78;;;2.50;;
59273;SDS011;45044;41.572;24.730;2023-09-19T10:27:22;3.92;;;2.42;;
59273;SDS011;45044;41.572;24.730;2023-09-19T10:29:52;4.65;;;2.38;;
59273;SDS011;45044;41.572;24.730;2023-09-19T10:32:22;5.10;;;2.75;;
59273;SDS011;45044;41.572;24.730;2023-09-19T10:34:50;4.97;;;2.55;;
59273;SDS011;45044;41.572;24.730;2023-09-19T10:37:22;5.30;;;2.88;;
59273;SDS011;45044;41.572;24.730;2023-09-19T10:39:53;5.38;;;2.83;;
59273;SDS011;45044;41.572;24.730;2023-09-19T10:42:23;5.10;;;2.63;;
59273;SDS011;45044;41.572;24.730;2023-09-19T10:44:55;4.35;;;2.60;;
59273;SDS011;45044;41.572;24.730;2023-09-19T10:47:26;5.60;;;2.95;;
59273;SDS011;45044;41.572;24.730;2023-09-19T10:49:53;4.45;;;2.80;;
59273;SDS011;45044;41.572;24.730;2023-09-19T10:52:22;3.88;;;2.45;;
59273;SDS011;45044;41.572;24.730;2023-09-19T10:54:53;4.10;;;2.58;;
59273;SDS011;45044;41.572;24.730;2023-09-19T10:57:24;4.18;;;2.67;;
59273;SDS011;45044;41.572;24.730;2023-09-19T11:00:01;5.18;;;2.60;;
59273;SDS011;45044;41.572;24.730;2023-09-19T11:05:39;5.72;;;2.78;;
59273;SDS011;45044;41.572;24.730;2023-09-19T11:08:10;5.88;;;2.50;;
59273;SDS011;45044;41.572;24.730;2023-09-19T11:13:28;5.32;;;3.05;;
59273;SDS011;45044;41.572;24.730;2023-09-19T11:26:51;5.25;;;2.80;;
59273;SDS011;45044;41.572;24.730;2023-09-19T11:29:36;4.85;;;2.40;;
59273;SDS011;45044;41.572;24.730;2023-09-19T11:32:04;5.35;;;2.55;;
59273;SDS011;45044;41.572;24.730;2023-09-19T11:42:43;4.65;;;2.75;;
59273;SDS011;45044;41.572;24.730;2023-09-19T11:48:13;4.63;;;2.65;;
59273;SDS011;45044;41.572;24.730;2023-09-19T11:50:42;4.03;;;2.40;;
59273;SDS011;45044;41.572;24.730;2023-09-19T11:53:13;4.63;;;2.50;;
59273;SDS011;45044;41.572;24.730;2023-09-19T11:55:43;5.07;;;2.60;;
59273;SDS011;45044;41.572;24.730;2023-09-19T11:58:12;3.88;;;2.40;;
59273;SDS011;45044;41.572;24.730;2023-09-19T12:00:43;5.00;;;2.78;;
59273;SDS011;45044;41.572;24.730;2023-09-19T12:03:12;5.70;;;2.80;;
59273;SDS011;45044;41.572;24.730;2023-09-19T12:05:41;4.60;;;2.83;;
59273;SDS011;45044;41.572;24.730;2023-09-19T12:08:08;5.10;;;2.83;;
59273;SDS011;45044;41.572;24.730;2023-09-19T12:10:45;5.57;;;2.80;;
59273;SDS011;45044;41.572;24.730;2023-09-19T12:13:16;4.85;;;2.50;;
59273;SDS011;45044;41.572;24.730;2023-09-19T12:15:44;4.93;;;2.70;;
59273;SDS011;45044;41.572;24.730;2023-09-19T12:18:27;5.20;;;2.88;;
59273;SDS011;45044;41.572;24.730;2023-09-19T12:20:57;3.85;;;2.47;;
59273;SDS011;45044;41.572;24.730;2023-09-19T12:23:24;4.43;;;2.63;;
59273;SDS011;45044;41.572;24.730;2023-09-19T12:25:54;5.10;;;2.58;;
59273;SDS011;45044;41.572;24.730;2023-09-19T12:28:27;5.00;;;2.75;;
59273;SDS011;45044;41.572;24.730;2023-09-19T12:31:05;5.32;;;3.25;;
59273;SDS011;45044;41.572;24.730;2023-09-19T12:33:33;5.18;;;2.95;;
59273;SDS011;45044;41.572;24.730;2023-09-19T12:36:18;3.95;;;2.42;;
59273;SDS011;45044;41.572;24.730;2023-09-19T12:38:51;4.75;;;2.35;;
59273;SDS011;45044;41.572;24.730;2023-09-19T12:41:19;4.13;;;2.83;;
59273;SDS011;45044;41.572;24.730;2023-09-19T12:43:48;4.45;;;3.15;;
59273;SDS011;45044;41.572;24.730;2023-09-19T12:46:19;5.75;;;2.80;;
59273;SDS011;45044;41.572;24.730;2023-09-19T12:51:48;5.03;;;2.65;;
59273;SDS011;45044;41.572;24.730;2023-09-19T12:54:15;4.85;;;2.53;;
59273;SDS011;45044;41.572;24.730;2023-09-19T12:56:43;3.42;;;2.40;;
59273;SDS011;45044;41.572;24.730;2023-09-19T12:59:12;4.38;;;2.50;;
59273;SDS011;45044;41.572;24.730;2023-09-19T13:01:40;3.58;;;2.35;;
59273;SDS011;45044;41.572;24.730;2023-09-19T13:04:20;5.30;;;2.75;;
59273;SDS011;45044;41.572;24.730;2023-09-19T13:06:56;5.90;;;2.78;;
59273;SDS011;45044;41.572;24.730;2023-09-19T13:09:27;5.38;;;2.80;;
59273;SDS011;45044;41.572;24.730;2023-09-19T13:12:01;5.03;;;2.55;;
59273;SDS011;45044;41.572;24.730;2023-09-19T13:14:33;4.78;;;2.60;;
59273;SDS011;45044;41.572;24.730;2023-09-19T13:17:07;3.75;;;2.42;;
59273;SDS011;45044;41.572;24.730;2023-09-19T13:19:46;4.75;;;2.72;;
59273;SDS011;45044;41.572;24.730;2023-09-19T13:22:36;4.22;;;2.30;;
59273;SDS011;45044;41.572;24.730;2023-09-19T13:25:13;5.82;;;3.45;;
59273;SDS011;45044;41.572;24.730;2023-09-19T13:27:45;3.88;;;2.60;;
59273;SDS011;45044;41.572;24.730;2023-09-19T13:30:21;5.25;;;3.35;;
59273;SDS011;45044;41.572;24.730;2023-09-19T13:32:51;5.13;;;2.90;;
59273;SDS011;45044;41.572;24.730;2023-09-19T13:35:19;6.07;;;3.33;;
59273;SDS011;45044;41.572;24.730;2023-09-19T13:37:46;5.22;;;2.70;;
59273;SDS011;45044;41.572;24.730;2023-09-19T13:40:15;4.18;;;2.85;;
59273;SDS011;45044;41.572;24.730;2023-09-19T13:42:42;4.25;;;2.83;;
59273;SDS011;45044;41.572;24.730;2023-09-19T13:45:09;7.30;;;3.20;;
59273;SDS011;45044;41.572;24.730;2023-09-19T13:47:39;4.88;;;2.92;;
59273;SDS011;45044;41.572;24.730;2023-09-19T13:50:08;5.32;;;3.08;;
59273;SDS011;45044;41.572;24.730;2023-09-19T13:52:35;4.43;;;2.70;;
59273;SDS011;45044;41.572;24.730;2023-09-19T13:55:03;4.40;;;2.47;;
59273;SDS011;45044;41.572;24.730;2023-09-19T13:57:31;4.07;;;2.70;;
59273;SDS011;45044;41.572;24.730;2023-09-19T13:59:59;4.70;;;2.67;;
59273;SDS011;45044;41.572;24.730;2023-09-19T14:02:26;5.55;;;3.00;;
59273;SDS011;45044;41.572;24.730;2023-09-19T14:04:53;5.13;;;2.83;;
59273;SDS011;45044;41.572;24.730;2023-09-19T14:07:20;4.07;;;2.50;;
59273;SDS011;45044;41.572;24.730;2023-09-19T14:09:47;5.90;;;2.50;;
59273;SDS011;45044;41.572;24.730;2023-09-19T14:12:14;4.85;;;2.72;;
59273;SDS011;45044;41.572;24.730;2023-09-19T14:14:41;6.25;;;2.60;;
59273;SDS011;45044;41.572;24.730;2023-09-19T14:17:09;5.05;;;2.78;;
59273;SDS011;45044;41.572;24.730;2023-09-19T14:19:36;7.63;;;3.03;;
59273;SDS011;45044;41.572;24.730;2023-09-19T14:22:03;5.90;;;3.10;;
59273;SDS011;45044;41.572;24.730;2023-09-19T14:24:34;4.65;;;3.10;;
59273;SDS011;45044;41.572;24.730;2023-09-19T14:27:02;7.22;;;3.45;;
59273;SDS011;45044;41.572;24.730;2023-09-19T14:29:35;4.20;;;2.67;;
59273;SDS011;45044;41.572;24.730;2023-09-19T14:32:02;4.45;;;2.80;;
59273;SDS011;45044;41.572;24.730;2023-09-19T14:34:29;5.18;;;3.40;;
59273;SDS011;45044;41.572;24.730;2023-09-19T14:36:56;8.02;;;3.97;;
59273;SDS011;45044;41.572;24.730;2023-09-19T14:39:23;4.95;;;2.95;;
59273;SDS011;45044;41.572;24.730;2023-09-19T14:41:50;7.28;;;3.05;;
59273;SDS011;45044;41.572;24.730;2023-09-19T14:44:18;7.53;;;3.97;;
59273;SDS011;45044;41.572;24.730;2023-09-19T14:46:44;5.82;;;3.28;;
59273;SDS011;45044;41.572;24.730;2023-09-19T14:49:11;5.43;;;3.10;;
59273;SDS011;45044;41.572;24.730;2023-09-19T14:51:38;5.20;;;3.05;;
59273;SDS011;45044;41.572;24.730;2023-09-19T14:54:10;5.53;;;2.70;;
59273;SDS011;45044;41.572;24.730;2023-09-19T14:56:37;4.68;;;2.85;;
59273;SDS011;45044;41.572;24.730;2023-09-19T14:59:04;5.22;;;2.75;;
59273;SDS011;45044;41.572;24.730;2023-09-19T15:01:31;5.25;;;2.67;;
59273;SDS011;45044;41.572;24.730;2023-09-19T15:03:59;5.13;;;2.67;;
59273;SDS011;45044;41.572;24.730;2023-09-19T15:06:28;6.20;;;3.00;;
59273;SDS011;45044;41.572;24.730;2023-09-19T15:08:55;4.80;;;2.83;;
59273;SDS011;45044;41.572;24.730;2023-09-19T15:11:21;5.03;;;2.40;;
59273;SDS011;45044;41.572;24.730;2023-09-19T15:13:51;4.32;;;2.70;;
59273;SDS011;45044;41.572;24.730;2023-09-19T15:16:19;4.15;;;2.50;;
59273;SDS011;45044;41.572;24.730;2023-09-19T15:18:46;4.32;;;2.42;;
59273;SDS011;45044;41.572;24.730;2023-09-19T15:21:18;4.25;;;2.83;;
59273;SDS011;45044;41.572;24.730;2023-09-19T15:23:45;5.10;;;2.60;;
59273;SDS011;45044;41.572;24.730;2023-09-19T15:26:13;5.07;;;2.80;;
59273;SDS011;45044;41.572;24.730;2023-09-19T15:28:44;5.75;;;2.90;;
59273;SDS011;45044;41.572;24.730;2023-09-19T15:31:11;6.47;;;3.10;;
59273;SDS011;45044;41.572;24.730;2023-09-19T15:33:39;4.95;;;2.92;;
59273;SDS011;45044;41.572;24.730;2023-09-19T15:36:07;6.00;;;3.33;;
59273;SDS011;45044;41.572;24.730;2023-09-19T15:41:32;9.23;;;5.18;;